sensor_id;sensor_type;location;lat;lon;timestamp;temperature;humidity
15259;DHT22;34462;51.368;12.364;2023-08-07T00:00:31;15.60;99.90
15259;DHT22;34462;51.368;12.364;2023-08-07T00:02:59;15.60;99.90
15259;DHT22;34462;51.368;12.364;2023-08-07T00:05:28;15.50;99.90
15259;DHT22;34462;51.368;12.364;2023-08-07T00:07:58;15.50;99.90
15259;DHT22;34462;51.368;12.364;2023-08-07T00:10:26;15.40;99.90
15259;DHT22;34462;51.368;12.364;2023-08-07T00:12:54;15.50;99.90
15259;DHT22;34462;51.368;12.364;2023-08-07T00:15:23;15.50;99.90
15259;DHT22;34462;51.368;12.364;2023-08-07T00:17:51;15.50;99.90
15259;DHT22;34462;51.368;12.364;2023-08-07T00:20:19;15.50;99.90
15259;DHT22;34462;51.368;12.364;2023-08-07T00:22:48;15.50;99.90
15259;DHT22;34462;51.368;12.364;2023-08-07T00:25:18;15.50;99.90
15259;DHT22;34462;51.368;12.364;2023-08-07T00:27:47;15.50;99.90
15259;DHT22;34462;51.368;12.364;2023-08-07T00:30:15;15.50;99.90
15259;DHT22;34462;51.368;12.364;2023-08-07T00:32:43;15.50;99.90
15259;DHT22;34462;51.368;12.364;2023-08-07T00:35:12;15.50;99.90
15259;DHT22;34462;51.368;12.364;2023-08-07T00:37:40;15.60;99.90
15259;DHT22;34462;51.368;12.364;2023-08-07T00:40:11;15.60;99.90
15259;DHT22;34462;51.368;12.364;2023-08-07T00:42:41;15.70;99.90
15259;DHT22;34462;51.368;12.364;2023-08-07T00:45:09;15.70;99.90
15259;DHT22;34462;51.368;12.364;2023-08-07T00:47:38;15.70;99.90
15259;DHT22;34462;51.368;12.364;2023-08-07T00:50:07;15.70;99.90
15259;DHT22;34462;51.368;12.364;2023-08-07T00:52:36;15.70;99.90
15259;DHT22;34462;51.368;12.364;2023-08-07T00:55:05;15.70;99.90
15259;DHT22;34462;51.368;12.364;2023-08-07T00:57:34;15.70;99.90
15259;DHT22;34462;51.368;12.364;2023-08-07T01:00:05;15.80;99.90
15259;DHT22;34462;51.368;12.364;2023-08-07T01:02:34;15.80;99.90
15259;DHT22;34462;51.368;12.364;2023-08-07T01:05:03;15.80;99.90
15259;DHT22;34462;51.368;12.364;2023-08-07T01:07:31;15.70;99.90
15259;DHT22;34462;51.368;12.364;2023-08-07T01:10:00;15.80;99.90
15259;DHT22;34462;51.368;12.364;2023-08-07T01:12:35;15.80;99.90
15259;DHT22;34462;51.368;12.364;2023-08-07T01:15:14;15.80;99.90
15259;DHT22;34462;51.368;12.364;2023-08-07T01:17:44;15.80;99.90
15259;DHT22;34462;51.368;12.364;2023-08-07T01:20:14;15.70;99.90
15259;DHT22;34462;51.368;12.364;2023-08-07T01:22:45;15.70;99.90
15259;DHT22;34462;51.368;12.364;2023-08-07T01:25:13;15.60;99.90
15259;DHT22;34462;51.368;12.364;2023-08-07T01:27:46;15.60;99.90
15259;DHT22;34462;51.368;12.364;2023-08-07T01:30:26;15.70;99.90
15259;DHT22;34462;51.368;12.364;2023-08-07T01:33:08;15.70;99.90
15259;DHT22;34462;51.368;12.364;2023-08-07T01:35:44;15.60;99.90
15259;DHT22;34462;51.368;12.364;2023-08-07T01:38:19;15.50;99.90
15259;DHT22;34462;51.368;12.364;2023-08-07T01:40:52;15.60;99.90
15259;DHT22;34462;51.368;12.364;2023-08-07T01:43:21;15.50;99.90
15259;DHT22;34462;51.368;12.364;2023-08-07T01:45:49;15.50;99.90
15259;DHT22;34462;51.368;12.364;2023-08-07T01:48:17;15.50;99.90
15259;DHT22;34462;51.368;12.364;2023-08-07T01:50:46;15.50;99.90
15259;DHT22;34462;51.368;12.364;2023-08-07T01:53:15;15.50;99.90
15259;DHT22;34462;51.368;12.364;2023-08-07T01:55:44;15.50;99.90
15259;DHT22;34462;51.368;12.364;2023-08-07T01:58:12;15.50;99.90
15259;DHT22;34462;51.368;12.364;2023-08-07T02:00:41;15.30;99.90
15259;DHT22;34462;51.368;12.364;2023-08-07T02:03:09;15.40;99.90
15259;DHT22;34462;51.368;12.364;2023-08-07T02:05:37;15.40;99.90
15259;DHT22;34462;51.368;12.364;2023-08-07T02:08:05;15.50;99.90
15259;DHT22;34462;51.368;12.364;2023-08-07T02:10:34;15.50;99.90
15259;DHT22;34462;51.368;12.364;2023-08-07T02:13:03;15.50;99.90
15259;DHT22;34462;51.368;12.364;2023-08-07T02:15:31;15.50;99.90
15259;DHT22;34462;51.368;12.364;2023-08-07T02:17:59;15.50;99.90
15259;DHT22;34462;51.368;12.364;2023-08-07T02:20:28;15.50;99.90
15259;DHT22;34462;51.368;12.364;2023-08-07T02:22:56;15.50;99.90
15259;DHT22;34462;51.368;12.364;2023-08-07T02:25:24;15.40;99.90
15259;DHT22;34462;51.368;12.364;2023-08-07T02:27:52;15.40;99.90
15259;DHT22;34462;51.368;12.364;2023-08-07T02:30:22;15.30;99.90
15259;DHT22;34462;51.368;12.364;2023-08-07T02:32:50;15.20;99.90
15259;DHT22;34462;51.368;12.364;2023-08-07T02:35:18;15.20;99.90
15259;DHT22;34462;51.368;12.364;2023-08-07T02:37:46;15.10;99.90
15259;DHT22;34462;51.368;12.364;2023-08-07T02:40:15;15.10;99.90
15259;DHT22;34462;51.368;12.364;2023-08-07T02:42:45;14.90;99.90
15259;DHT22;34462;51.368;12.364;2023-08-07T02:45:13;15.10;99.90
15259;DHT22;34462;51.368;12.364;2023-08-07T02:47:43;15.10;99.90
15259;DHT22;34462;51.368;12.364;2023-08-07T02:50:11;15.20;99.90
15259;DHT22;34462;51.368;12.364;2023-08-07T02:52:39;15.20;99.90
15259;DHT22;34462;51.368;12.364;2023-08-07T02:55:11;15.20;99.90
15259;DHT22;34462;51.368;12.364;2023-08-07T02:57:39;15.30;99.90
15259;DHT22;34462;51.368;12.364;2023-08-07T03:00:08;15.30;99.90
15259;DHT22;34462;51.368;12.364;2023-08-07T03:02:38;15.30;99.90
15259;DHT22;34462;51.368;12.364;2023-08-07T03:05:08;15.30;99.90
15259;DHT22;34462;51.368;12.364;2023-08-07T03:07:37;15.30;99.90
15259;DHT22;34462;51.368;12.364;2023-08-07T03:10:06;15.30;99.90
15259;DHT22;34462;51.368;12.364;2023-08-07T03:12:35;15.40;99.90
15259;DHT22;34462;51.368;12.364;2023-08-07T03:15:05;15.30;99.90
15259;DHT22;34462;51.368;12.364;2023-08-07T03:17:34;15.30;99.90
15259;DHT22;34462;51.368;12.364;2023-08-07T03:20:02;15.30;99.90
15259;DHT22;34462;51.368;12.364;2023-08-07T03:22:33;15.30;99.90
15259;DHT22;34462;51.368;12.364;2023-08-07T03:25:01;15.30;99.90
15259;DHT22;34462;51.368;12.364;2023-08-07T03:27:29;15.20;99.90
15259;DHT22;34462;51.368;12.364;2023-08-07T03:29:58;15.30;99.90
15259;DHT22;34462;51.368;12.364;2023-08-07T03:32:26;15.30;99.90
15259;DHT22;34462;51.368;12.364;2023-08-07T03:34:54;15.30;99.90
15259;DHT22;34462;51.368;12.364;2023-08-07T03:37:22;15.30;99.90
15259;DHT22;34462;51.368;12.364;2023-08-07T03:39:52;15.30;99.90
15259;DHT22;34462;51.368;12.364;2023-08-07T03:42:20;15.40;99.90
15259;DHT22;34462;51.368;12.364;2023-08-07T03:44:48;15.40;99.90
15259;DHT22;34462;51.368;12.364;2023-08-07T03:47:16;15.40;99.90
15259;DHT22;34462;51.368;12.364;2023-08-07T03:49:45;15.40;99.90
15259;DHT22;34462;51.368;12.364;2023-08-07T03:52:13;15.40;99.90
15259;DHT22;34462;51.368;12.364;2023-08-07T03:54:41;15.40;99.90
15259;DHT22;34462;51.368;12.364;2023-08-07T03:57:11;15.40;99.90
15259;DHT22;34462;51.368;12.364;2023-08-07T03:59:39;15.40;99.90
15259;DHT22;34462;51.368;12.364;2023-08-07T04:02:07;15.40;99.90
15259;DHT22;34462;51.368;12.364;2023-08-07T04:04:35;15.40;99.90
15259;DHT22;34462;51.368;12.364;2023-08-07T04:07:03;15.40;99.90
15259;DHT22;34462;51.368;12.364;2023-08-07T04:09:32;15.40;99.90
15259;DHT22;34462;51.368;12.364;2023-08-07T04:12:00;15.30;99.90
15259;DHT22;34462;51.368;12.364;2023-08-07T04:14:30;15.30;99.90
15259;DHT22;34462;51.368;12.364;2023-08-07T04:16:58;15.30;99.90
15259;DHT22;34462;51.368;12.364;2023-08-07T04:19:27;15.40;99.90
15259;DHT22;34462;51.368;12.364;2023-08-07T04:21:55;15.40;99.90
15259;DHT22;34462;51.368;12.364;2023-08-07T04:24:24;15.40;99.90
15259;DHT22;34462;51.368;12.364;2023-08-07T04:26:52;15.40;99.90
15259;DHT22;34462;51.368;12.364;2023-08-07T04:29:21;15.50;99.90
15259;DHT22;34462;51.368;12.364;2023-08-07T04:31:50;15.50;99.90
15259;DHT22;34462;51.368;12.364;2023-08-07T04:34:18;15.50;99.90
15259;DHT22;34462;51.368;12.364;2023-08-07T04:36:47;15.50;99.90
15259;DHT22;34462;51.368;12.364;2023-08-07T04:39:17;15.50;99.90
15259;DHT22;34462;51.368;12.364;2023-08-07T04:41:45;15.50;99.90
15259;DHT22;34462;51.368;12.364;2023-08-07T04:46:42;15.50;99.90
15259;DHT22;34462;51.368;12.364;2023-08-07T04:49:12;15.60;99.90
15259;DHT22;34462;51.368;12.364;2023-08-07T04:51:40;15.70;99.90
15259;DHT22;34462;51.368;12.364;2023-08-07T04:54:08;15.70;99.90
15259;DHT22;34462;51.368;12.364;2023-08-07T04:56:36;15.60;99.90
15259;DHT22;34462;51.368;12.364;2023-08-07T04:59:05;15.70;99.90
15259;DHT22;34462;51.368;12.364;2023-08-07T05:01:33;15.70;99.90
15259;DHT22;34462;51.368;12.364;2023-08-07T05:04:01;15.80;99.90
15259;DHT22;34462;51.368;12.364;2023-08-07T05:06:32;15.80;99.90
15259;DHT22;34462;51.368;12.364;2023-08-07T05:09:00;15.80;99.90
15259;DHT22;34462;51.368;12.364;2023-08-07T05:11:30;15.90;99.90
15259;DHT22;34462;51.368;12.364;2023-08-07T05:13:58;16.00;99.90
15259;DHT22;34462;51.368;12.364;2023-08-07T05:16:26;16.00;99.90
15259;DHT22;34462;51.368;12.364;2023-08-07T05:18:54;16.10;99.90
15259;DHT22;34462;51.368;12.364;2023-08-07T05:21:22;16.20;99.90
15259;DHT22;34462;51.368;12.364;2023-08-07T05:23:52;16.30;99.90
15259;DHT22;34462;51.368;12.364;2023-08-07T05:26:22;16.20;99.90
15259;DHT22;34462;51.368;12.364;2023-08-07T05:28:50;16.20;99.90
15259;DHT22;34462;51.368;12.364;2023-08-07T05:31:18;16.20;99.90
15259;DHT22;34462;51.368;12.364;2023-08-07T05:33:46;16.20;99.90
15259;DHT22;34462;51.368;12.364;2023-08-07T05:36:14;16.30;99.90
15259;DHT22;34462;51.368;12.364;2023-08-07T05:38:43;16.20;99.90
15259;DHT22;34462;51.368;12.364;2023-08-07T05:41:12;16.30;99.90
15259;DHT22;34462;51.368;12.364;2023-08-07T05:43:40;16.30;99.90
15259;DHT22;34462;51.368;12.364;2023-08-07T05:46:08;16.30;99.90
15259;DHT22;34462;51.368;12.364;2023-08-07T05:48:37;16.40;99.90
15259;DHT22;34462;51.368;12.364;2023-08-07T05:51:05;16.50;99.90
15259;DHT22;34462;51.368;12.364;2023-08-07T05:53:35;16.70;99.90
15259;DHT22;34462;51.368;12.364;2023-08-07T05:56:03;17.00;99.90
15259;DHT22;34462;51.368;12.364;2023-08-07T05:58:33;17.30;99.90
15259;DHT22;34462;51.368;12.364;2023-08-07T06:01:01;17.40;99.90
15259;DHT22;34462;51.368;12.364;2023-08-07T06:03:29;17.30;99.90
15259;DHT22;34462;51.368;12.364;2023-08-07T06:05:58;17.30;99.90
15259;DHT22;34462;51.368;12.364;2023-08-07T06:08:27;17.20;99.90
15259;DHT22;34462;51.368;12.364;2023-08-07T06:10:55;17.20;99.90
15259;DHT22;34462;51.368;12.364;2023-08-07T06:13:23;17.10;99.90
15259;DHT22;34462;51.368;12.364;2023-08-07T06:16:03;17.00;99.90
15259;DHT22;34462;51.368;12.364;2023-08-07T06:18:32;17.00;99.90
15259;DHT22;34462;51.368;12.364;2023-08-07T06:21:02;17.00;99.90
15259;DHT22;34462;51.368;12.364;2023-08-07T06:23:31;16.80;99.90
15259;DHT22;34462;51.368;12.364;2023-08-07T06:25:59;16.80;99.90
15259;DHT22;34462;51.368;12.364;2023-08-07T06:28:31;16.70;99.90
15259;DHT22;34462;51.368;12.364;2023-08-07T06:31:02;16.70;99.90
15259;DHT22;34462;51.368;12.364;2023-08-07T06:33:31;16.80;99.90
15259;DHT22;34462;51.368;12.364;2023-08-07T06:36:00;16.80;99.90
15259;DHT22;34462;51.368;12.364;2023-08-07T06:38:28;16.90;99.90
15259;DHT22;34462;51.368;12.364;2023-08-07T06:40:57;16.90;99.90
15259;DHT22;34462;51.368;12.364;2023-08-07T06:43:25;17.00;99.90
15259;DHT22;34462;51.368;12.364;2023-08-07T06:45:54;17.20;99.90
15259;DHT22;34462;51.368;12.364;2023-08-07T06:48:25;17.40;99.90
15259;DHT22;34462;51.368;12.364;2023-08-07T06:50:53;17.60;99.90
15259;DHT22;34462;51.368;12.364;2023-08-07T06:53:22;17.90;99.90
15259;DHT22;34462;51.368;12.364;2023-08-07T06:55:50;18.10;99.90
15259;DHT22;34462;51.368;12.364;2023-08-07T06:58:22;18.30;99.90
15259;DHT22;34462;51.368;12.364;2023-08-07T07:00:50;18.30;99.90
15259;DHT22;34462;51.368;12.364;2023-08-07T07:03:18;18.40;99.90
15259;DHT22;34462;51.368;12.364;2023-08-07T07:05:49;18.50;99.90
15259;DHT22;34462;51.368;12.364;2023-08-07T07:08:17;18.40;99.90
15259;DHT22;34462;51.368;12.364;2023-08-07T07:10:45;18.40;99.90
15259;DHT22;34462;51.368;12.364;2023-08-07T07:13:13;18.50;99.90
15259;DHT22;34462;51.368;12.364;2023-08-07T07:15:41;18.60;99.90
15259;DHT22;34462;51.368;12.364;2023-08-07T07:18:10;18.80;99.90
15259;DHT22;34462;51.368;12.364;2023-08-07T07:20:38;18.90;99.90
15259;DHT22;34462;51.368;12.364;2023-08-07T07:23:07;19.00;99.90
15259;DHT22;34462;51.368;12.364;2023-08-07T07:25:35;19.10;99.90
15259;DHT22;34462;51.368;12.364;2023-08-07T07:28:04;19.20;99.90
15259;DHT22;34462;51.368;12.364;2023-08-07T07:30:32;19.40;99.90
15259;DHT22;34462;51.368;12.364;2023-08-07T07:33:01;19.40;99.90
15259;DHT22;34462;51.368;12.364;2023-08-07T07:35:29;19.30;99.90
15259;DHT22;34462;51.368;12.364;2023-08-07T07:37:57;19.20;99.90
15259;DHT22;34462;51.368;12.364;2023-08-07T07:40:27;19.10;99.90
15259;DHT22;34462;51.368;12.364;2023-08-07T07:42:55;19.20;99.90
15259;DHT22;34462;51.368;12.364;2023-08-07T07:45:23;19.30;99.90
15259;DHT22;34462;51.368;12.364;2023-08-07T07:47:51;19.30;99.90
15259;DHT22;34462;51.368;12.364;2023-08-07T07:50:20;19.30;99.90
15259;DHT22;34462;51.368;12.364;2023-08-07T07:52:48;19.20;99.90
15259;DHT22;34462;51.368;12.364;2023-08-07T07:55:16;19.00;99.90
15259;DHT22;34462;51.368;12.364;2023-08-07T07:57:46;19.00;99.90
15259;DHT22;34462;51.368;12.364;2023-08-07T08:00:15;19.10;99.90
15259;DHT22;34462;51.368;12.364;2023-08-07T08:02:43;19.30;99.90
15259;DHT22;34462;51.368;12.364;2023-08-07T08:05:11;19.30;99.90
15259;DHT22;34462;51.368;12.364;2023-08-07T08:07:39;19.40;99.90
15259;DHT22;34462;51.368;12.364;2023-08-07T08:10:08;19.50;99.90
15259;DHT22;34462;51.368;12.364;2023-08-07T08:12:37;19.60;99.90
15259;DHT22;34462;51.368;12.364;2023-08-07T08:15:07;19.50;99.90
15259;DHT22;34462;51.368;12.364;2023-08-07T08:17:36;19.20;99.90
15259;DHT22;34462;51.368;12.364;2023-08-07T08:20:06;19.20;99.90
15259;DHT22;34462;51.368;12.364;2023-08-07T08:22:35;19.40;99.90
15259;DHT22;34462;51.368;12.364;2023-08-07T08:25:03;19.50;99.90
15259;DHT22;34462;51.368;12.364;2023-08-07T08:27:33;19.40;99.90
15259;DHT22;34462;51.368;12.364;2023-08-07T08:30:02;19.20;99.90
15259;DHT22;34462;51.368;12.364;2023-08-07T08:32:31;19.20;99.90
15259;DHT22;34462;51.368;12.364;2023-08-07T08:35:00;19.00;99.90
15259;DHT22;34462;51.368;12.364;2023-08-07T08:37:28;18.80;99.90
15259;DHT22;34462;51.368;12.364;2023-08-07T08:39:56;18.70;99.90
15259;DHT22;34462;51.368;12.364;2023-08-07T08:42:25;18.80;99.90
15259;DHT22;34462;51.368;12.364;2023-08-07T08:44:55;18.90;99.90
15259;DHT22;34462;51.368;12.364;2023-08-07T08:47:26;19.10;99.90
15259;DHT22;34462;51.368;12.364;2023-08-07T08:50:06;19.40;99.90
15259;DHT22;34462;51.368;12.364;2023-08-07T08:52:37;19.70;99.90
15259;DHT22;34462;51.368;12.364;2023-08-07T08:55:09;19.90;99.90
15259;DHT22;34462;51.368;12.364;2023-08-07T08:57:39;19.70;99.90
15259;DHT22;34462;51.368;12.364;2023-08-07T09:00:08;19.70;99.90
15259;DHT22;34462;51.368;12.364;2023-08-07T09:02:45;19.60;99.90
15259;DHT22;34462;51.368;12.364;2023-08-07T09:05:17;19.40;99.90
15259;DHT22;34462;51.368;12.364;2023-08-07T09:07:47;19.10;99.90
15259;DHT22;34462;51.368;12.364;2023-08-07T09:10:16;18.90;99.90
15259;DHT22;34462;51.368;12.364;2023-08-07T09:12:53;18.80;99.90
15259;DHT22;34462;51.368;12.364;2023-08-07T09:15:25;18.80;99.90
15259;DHT22;34462;51.368;12.364;2023-08-07T09:17:55;19.00;99.90
15259;DHT22;34462;51.368;12.364;2023-08-07T09:20:25;19.20;99.90
15259;DHT22;34462;51.368;12.364;2023-08-07T09:22:53;19.40;99.90
15259;DHT22;34462;51.368;12.364;2023-08-07T09:25:28;19.80;99.90
15259;DHT22;34462;51.368;12.364;2023-08-07T09:27:57;20.10;99.90
15259;DHT22;34462;51.368;12.364;2023-08-07T09:30:27;20.20;99.90
15259;DHT22;34462;51.368;12.364;2023-08-07T09:32:56;20.30;99.90
15259;DHT22;34462;51.368;12.364;2023-08-07T09:35:27;20.40;99.90
15259;DHT22;34462;51.368;12.364;2023-08-07T09:37:57;20.40;99.90
15259;DHT22;34462;51.368;12.364;2023-08-07T09:40:26;20.30;99.90
15259;DHT22;34462;51.368;12.364;2023-08-07T09:42:54;20.20;99.90
15259;DHT22;34462;51.368;12.364;2023-08-07T09:45:24;20.20;99.90
15259;DHT22;34462;51.368;12.364;2023-08-07T09:47:58;20.30;99.90
15259;DHT22;34462;51.368;12.364;2023-08-07T09:50:29;20.40;99.90
15259;DHT22;34462;51.368;12.364;2023-08-07T09:52:58;20.50;99.90
15259;DHT22;34462;51.368;12.364;2023-08-07T09:55:27;20.50;99.90
15259;DHT22;34462;51.368;12.364;2023-08-07T09:57:55;20.30;99.90
15259;DHT22;34462;51.368;12.364;2023-08-07T10:00:23;20.30;99.90
15259;DHT22;34462;51.368;12.364;2023-08-07T10:02:53;20.00;99.90
15259;DHT22;34462;51.368;12.364;2023-08-07T10:05:22;19.60;99.90
15259;DHT22;34462;51.368;12.364;2023-08-07T10:07:52;19.20;99.90
15259;DHT22;34462;51.368;12.364;2023-08-07T10:10:22;18.90;99.90
15259;DHT22;34462;51.368;12.364;2023-08-07T10:12:52;18.60;99.90
15259;DHT22;34462;51.368;12.364;2023-08-07T10:15:22;18.40;99.90
15259;DHT22;34462;51.368;12.364;2023-08-07T10:17:51;18.30;99.90
15259;DHT22;34462;51.368;12.364;2023-08-07T10:20:19;18.20;99.90
15259;DHT22;34462;51.368;12.364;2023-08-07T10:22:49;18.20;99.90
15259;DHT22;34462;51.368;12.364;2023-08-07T10:25:21;18.10;99.90
15259;DHT22;34462;51.368;12.364;2023-08-07T10:27:53;18.00;99.90
15259;DHT22;34462;51.368;12.364;2023-08-07T10:30:25;18.20;99.90
15259;DHT22;34462;51.368;12.364;2023-08-07T10:32:55;18.50;99.90
15259;DHT22;34462;51.368;12.364;2023-08-07T10:35:29;18.70;99.90
15259;DHT22;34462;51.368;12.364;2023-08-07T10:38:07;19.00;99.90
15259;DHT22;34462;51.368;12.364;2023-08-07T10:40:58;19.00;99.90
15259;DHT22;34462;51.368;12.364;2023-08-07T10:43:28;19.20;99.90
15259;DHT22;34462;51.368;12.364;2023-08-07T10:46:03;19.20;99.90
15259;DHT22;34462;51.368;12.364;2023-08-07T10:48:38;19.20;99.90
15259;DHT22;34462;51.368;12.364;2023-08-07T10:51:08;19.20;99.90
15259;DHT22;34462;51.368;12.364;2023-08-07T10:53:42;19.10;99.90
15259;DHT22;34462;51.368;12.364;2023-08-07T10:56:16;19.20;99.90
15259;DHT22;34462;51.368;12.364;2023-08-07T10:58:49;19.20;99.90
15259;DHT22;34462;51.368;12.364;2023-08-07T11:01:24;19.00;99.90
15259;DHT22;34462;51.368;12.364;2023-08-07T11:04:06;19.20;99.90
15259;DHT22;34462;51.368;12.364;2023-08-07T11:06:37;19.40;99.90
15259;DHT22;34462;51.368;12.364;2023-08-07T11:09:09;19.20;99.90
15259;DHT22;34462;51.368;12.364;2023-08-07T11:11:38;19.00;99.90
15259;DHT22;34462;51.368;12.364;2023-08-07T11:14:08;18.80;99.90
15259;DHT22;34462;51.368;12.364;2023-08-07T11:16:38;18.70;99.90
15259;DHT22;34462;51.368;12.364;2023-08-07T11:19:07;18.70;99.90
15259;DHT22;34462;51.368;12.364;2023-08-07T11:21:37;18.70;99.90
15259;DHT22;34462;51.368;12.364;2023-08-07T11:24:05;18.90;99.90
15259;DHT22;34462;51.368;12.364;2023-08-07T11:26:35;19.20;99.90
15259;DHT22;34462;51.368;12.364;2023-08-07T11:29:03;19.60;99.90
15259;DHT22;34462;51.368;12.364;2023-08-07T11:31:33;19.90;99.90
15259;DHT22;34462;51.368;12.364;2023-08-07T11:34:02;20.10;99.90
15259;DHT22;34462;51.368;12.364;2023-08-07T11:36:30;20.30;99.90
15259;DHT22;34462;51.368;12.364;2023-08-07T11:39:00;20.40;99.90
15259;DHT22;34462;51.368;12.364;2023-08-07T11:41:31;20.60;99.90
15259;DHT22;34462;51.368;12.364;2023-08-07T11:44:01;20.60;99.90
15259;DHT22;34462;51.368;12.364;2023-08-07T11:46:29;20.80;99.90
15259;DHT22;34462;51.368;12.364;2023-08-07T11:48:57;20.90;99.90
15259;DHT22;34462;51.368;12.364;2023-08-07T11:51:28;20.80;99.90
15259;DHT22;34462;51.368;12.364;2023-08-07T11:53:56;20.90;99.90
15259;DHT22;34462;51.368;12.364;2023-08-07T11:56:25;21.10;99.90
15259;DHT22;34462;51.368;12.364;2023-08-07T11:58:54;21.30;99.90
15259;DHT22;34462;51.368;12.364;2023-08-07T12:01:25;21.10;99.90
15259;DHT22;34462;51.368;12.364;2023-08-07T12:03:57;20.70;99.90
15259;DHT22;34462;51.368;12.364;2023-08-07T12:06:36;20.40;99.90
15259;DHT22;34462;51.368;12.364;2023-08-07T12:09:06;20.10;99.90
15259;DHT22;34462;51.368;12.364;2023-08-07T12:11:39;19.80;99.90
15259;DHT22;34462;51.368;12.364;2023-08-07T12:14:07;19.80;99.90
15259;DHT22;34462;51.368;12.364;2023-08-07T12:16:36;19.50;99.90
15259;DHT22;34462;51.368;12.364;2023-08-07T12:19:04;19.30;99.90
15259;DHT22;34462;51.368;12.364;2023-08-07T12:21:32;19.20;99.90
15259;DHT22;34462;51.368;12.364;2023-08-07T12:24:01;19.20;99.90
15259;DHT22;34462;51.368;12.364;2023-08-07T12:26:29;19.40;99.90
15259;DHT22;34462;51.368;12.364;2023-08-07T12:28:57;19.70;99.90
15259;DHT22;34462;51.368;12.364;2023-08-07T12:31:25;20.00;99.90
15259;DHT22;34462;51.368;12.364;2023-08-07T12:33:54;19.90;99.90
15259;DHT22;34462;51.368;12.364;2023-08-07T12:36:43;19.60;99.90
15259;DHT22;34462;51.368;12.364;2023-08-07T12:39:11;19.40;99.90
15259;DHT22;34462;51.368;12.364;2023-08-07T12:41:39;19.30;99.90
15259;DHT22;34462;51.368;12.364;2023-08-07T12:44:27;19.20;99.90
15259;DHT22;34462;51.368;12.364;2023-08-07T12:46:55;19.20;99.90
15259;DHT22;34462;51.368;12.364;2023-08-07T12:49:25;19.20;99.90
15259;DHT22;34462;51.368;12.364;2023-08-07T12:51:53;18.90;99.90
15259;DHT22;34462;51.368;12.364;2023-08-07T12:54:23;18.80;99.90
15259;DHT22;34462;51.368;12.364;2023-08-07T12:56:51;18.70;99.90
15259;DHT22;34462;51.368;12.364;2023-08-07T12:59:21;18.60;99.90
15259;DHT22;34462;51.368;12.364;2023-08-07T13:01:50;18.50;99.90
15259;DHT22;34462;51.368;12.364;2023-08-07T13:04:19;18.20;99.90
15259;DHT22;34462;51.368;12.364;2023-08-07T13:06:49;17.90;99.90
15259;DHT22;34462;51.368;12.364;2023-08-07T13:09:18;17.90;99.90
15259;DHT22;34462;51.368;12.364;2023-08-07T13:11:47;17.90;99.90
15259;DHT22;34462;51.368;12.364;2023-08-07T13:14:15;18.00;99.90
15259;DHT22;34462;51.368;12.364;2023-08-07T13:16:43;17.90;99.90
15259;DHT22;34462;51.368;12.364;2023-08-07T13:19:11;18.00;99.90
15259;DHT22;34462;51.368;12.364;2023-08-07T13:21:39;18.10;99.90
15259;DHT22;34462;51.368;12.364;2023-08-07T13:24:09;18.20;99.90
15259;DHT22;34462;51.368;12.364;2023-08-07T13:26:37;18.20;99.90
15259;DHT22;34462;51.368;12.364;2023-08-07T13:29:11;18.10;99.90
15259;DHT22;34462;51.368;12.364;2023-08-07T13:31:39;18.10;99.90
15259;DHT22;34462;51.368;12.364;2023-08-07T13:34:10;17.70;99.90
15259;DHT22;34462;51.368;12.364;2023-08-07T13:36:39;17.30;99.90
15259;DHT22;34462;51.368;12.364;2023-08-07T13:39:08;17.00;99.90
15259;DHT22;34462;51.368;12.364;2023-08-07T13:41:37;16.90;99.90
15259;DHT22;34462;51.368;12.364;2023-08-07T13:44:05;17.00;99.90
15259;DHT22;34462;51.368;12.364;2023-08-07T13:46:33;16.90;99.90
15259;DHT22;34462;51.368;12.364;2023-08-07T13:49:01;17.00;99.90
15259;DHT22;34462;51.368;12.364;2023-08-07T13:51:30;16.90;99.90
15259;DHT22;34462;51.368;12.364;2023-08-07T13:53:58;16.90;99.90
15259;DHT22;34462;51.368;12.364;2023-08-07T13:56:27;16.80;99.90
15259;DHT22;34462;51.368;12.364;2023-08-07T13:58:56;16.70;99.90
15259;DHT22;34462;51.368;12.364;2023-08-07T14:01:24;16.70;99.90
15259;DHT22;34462;51.368;12.364;2023-08-07T14:03:52;17.00;99.90
15259;DHT22;34462;51.368;12.364;2023-08-07T14:06:20;17.30;99.90
15259;DHT22;34462;51.368;12.364;2023-08-07T14:08:48;17.50;99.90
15259;DHT22;34462;51.368;12.364;2023-08-07T14:11:16;17.80;99.90
15259;DHT22;34462;51.368;12.364;2023-08-07T14:13:47;17.90;99.90
15259;DHT22;34462;51.368;12.364;2023-08-07T14:16:15;17.90;99.90
15259;DHT22;34462;51.368;12.364;2023-08-07T14:18:43;17.70;99.90
15259;DHT22;34462;51.368;12.364;2023-08-07T14:21:12;17.50;99.90
15259;DHT22;34462;51.368;12.364;2023-08-07T14:23:40;17.30;99.90
15259;DHT22;34462;51.368;12.364;2023-08-07T14:26:09;16.70;99.90
15259;DHT22;34462;51.368;12.364;2023-08-07T14:28:37;16.40;99.90
15259;DHT22;34462;51.368;12.364;2023-08-07T14:31:08;16.20;99.90
15259;DHT22;34462;51.368;12.364;2023-08-07T14:33:37;16.10;99.90
15259;DHT22;34462;51.368;12.364;2023-08-07T14:36:06;15.80;99.90
15259;DHT22;34462;51.368;12.364;2023-08-07T14:38:34;15.80;99.90
15259;DHT22;34462;51.368;12.364;2023-08-07T14:41:02;15.80;99.90
15259;DHT22;34462;51.368;12.364;2023-08-07T14:43:31;15.80;99.90
15259;DHT22;34462;51.368;12.364;2023-08-07T14:45:59;16.00;99.90
15259;DHT22;34462;51.368;12.364;2023-08-07T14:48:29;16.20;99.90
15259;DHT22;34462;51.368;12.364;2023-08-07T14:50:57;16.40;99.90
15259;DHT22;34462;51.368;12.364;2023-08-07T14:53:25;16.60;99.90
15259;DHT22;34462;51.368;12.364;2023-08-07T14:55:54;16.60;99.90
15259;DHT22;34462;51.368;12.364;2023-08-07T14:58:22;16.70;99.90
15259;DHT22;34462;51.368;12.364;2023-08-07T15:00:53;16.80;99.90
15259;DHT22;34462;51.368;12.364;2023-08-07T15:03:22;17.00;99.90
15259;DHT22;34462;51.368;12.364;2023-08-07T15:05:52;17.30;99.90
15259;DHT22;34462;51.368;12.364;2023-08-07T15:08:20;17.50;99.90
15259;DHT22;34462;51.368;12.364;2023-08-07T15:10:51;17.70;99.90
15259;DHT22;34462;51.368;12.364;2023-08-07T15:13:20;17.90;99.90
15259;DHT22;34462;51.368;12.364;2023-08-07T15:15:48;17.80;99.90
15259;DHT22;34462;51.368;12.364;2023-08-07T15:18:16;17.80;99.90
15259;DHT22;34462;51.368;12.364;2023-08-07T15:20:46;17.90;99.90
15259;DHT22;34462;51.368;12.364;2023-08-07T15:23:16;17.90;99.90
15259;DHT22;34462;51.368;12.364;2023-08-07T15:25:44;17.90;99.90
15259;DHT22;34462;51.368;12.364;2023-08-07T15:28:12;17.80;99.90
15259;DHT22;34462;51.368;12.364;2023-08-07T15:30:46;17.80;99.90